Time;durP1;ratioP1;P1;durP2;ratioP2;P2;SDS_P1;SDS_P2;PMS_P1;PMS_P2;Temp;Humidity;BMP_temperature;BMP_pressure;BME280_temperature;BME280_humidity;BME280_pressure;Samples;Min_cycle;Max_cycle;Signal;HPM_P1;HPM_P2
2022/10/26 00:00:00;;;;;;;14.38;2.63;;;;;;;;;;5025671;28;20382;-61
2022/10/26 00:02:26;;;;;;;12.25;1.90;;;;;;;;;;5031017;28;20116;-61
2022/10/26 00:04:52;;;;;;;9.50;1.67;;;;;;;;;;5020726;28;20036;-61
2022/10/26 00:07:18;;;;;;;10.75;1.90;;;;;;;;;;5027434;28;20044;-61
2022/10/26 00:09:44;;;;;;;10.05;1.83;;;;;;;;;;5013987;28;20061;-61
2022/10/26 00:12:10;;;;;;;13.13;2.03;;;;;;;;;;5020188;28;20033;-61
2022/10/26 00:14:36;;;;;;;10.02;2.42;;;;;;;;;;5028769;28;20102;-61
2022/10/26 00:17:02;;;;;;;12.90;2.40;;;;;;;;;;5025748;28;20033;-61
2022/10/26 00:19:28;;;;;;;10.50;1.88;;;;;;;;;;5020103;28;20033;-61
2022/10/26 00:21:54;;;;;;;12.50;2.28;;;;;;;;;;5026302;28;20121;-61
2022/10/26 00:24:20;;;;;;;13.05;2.75;;;;;;;;;;5032028;28;20481;-61
2022/10/26 00:26:46;;;;;;;16.80;2.50;;;;;;;;;;5020308;28;20061;-61
2022/10/26 00:29:13;;;;;;;15.43;3.22;;;;;;;;;;5028175;28;20030;-61
2022/10/26 00:31:39;;;;;;;17.27;2.40;;;;;;;;;;5029701;28;20035;-61
2022/10/26 00:34:05;;;;;;;16.50;2.45;;;;;;;;;;5015035;28;20467;-61
2022/10/26 00:36:31;;;;;;;13.10;2.00;;;;;;;;;;5017550;28;20028;-61
2022/10/26 00:38:57;;;;;;;15.98;2.20;;;;;;;;;;5020856;28;20040;-61
2022/10/26 00:41:29;;;;;;;14.20;2.22;;;;;;;;;;5022837;28;20063;-61
2022/10/26 00:43:55;;;;;;;14.40;2.63;;;;;;;;;;5017052;28;20041;-61
2022/10/26 00:46:23;;;;;;;15.27;2.25;;;;;;;;;;5020864;28;20033;-61
2022/10/26 00:48:52;;;;;;;28.05;2.70;;;;;;;;;;5018223;28;20034;-61
2022/10/26 00:51:22;;;;;;;10.18;2.22;;;;;;;;;;5014839;28;20026;-61
2022/10/26 00:53:49;;;;;;;22.83;3.13;;;;;;;;;;5013704;28;20564;-61
2022/10/26 00:56:15;;;;;;;13.43;2.78;;;;;;;;;;5023447;28;20022;-61
2022/10/26 00:58:42;;;;;;;19.17;2.67;;;;;;;;;;5032549;28;20036;-61
2022/10/26 01:01:08;;;;;;;19.92;3.83;;;;;;;;;;5033065;28;20022;-61
2022/10/26 01:03:35;;;;;;;12.70;2.50;;;;;;;;;;5033090;28;20075;-61
2022/10/26 01:06:02;;;;;;;15.35;3.22;;;;;;;;;;5032248;28;20029;-61
2022/10/26 01:08:29;;;;;;;17.98;3.88;;;;;;;;;;5029335;28;20041;-61
2022/10/26 01:10:56;;;;;;;17.20;2.40;;;;;;;;;;5032224;28;20068;-61
2022/10/26 01:13:23;;;;;;;17.55;2.33;;;;;;;;;;5033144;28;20030;-61
2022/10/26 01:15:58;;;;;;;17.48;2.83;;;;;;;;;;5032441;28;20036;-61
2022/10/26 01:18:34;;;;;;;12.60;3.38;;;;;;;;;;5032143;28;20064;-61
2022/10/26 01:21:18;;;;;;;16.63;2.92;;;;;;;;;;5016877;28;20482;-61
2022/10/26 01:23:56;;;;;;;13.55;3.03;;;;;;;;;;5015493;28;20088;-61
2022/10/26 01:26:25;;;;;;;21.50;2.80;;;;;;;;;;5024396;28;20048;-61
2022/10/26 01:28:51;;;;;;;18.58;3.08;;;;;;;;;;5025487;28;20028;-61
2022/10/26 01:31:21;;;;;;;21.73;3.20;;;;;;;;;;5017352;28;20086;-61
2022/10/26 01:33:52;;;;;;;23.50;3.55;;;;;;;;;;5009317;28;20080;-61
2022/10/26 01:36:18;;;;;;;13.40;2.17;;;;;;;;;;5018538;28;20030;-61
2022/10/26 01:38:50;;;;;;;23.33;3.38;;;;;;;;;;5016283;28;20022;-61
2022/10/26 01:41:16;;;;;;;12.53;2.60;;;;;;;;;;5021389;28;20057;-61
2022/10/26 01:43:54;;;;;;;17.17;2.78;;;;;;;;;;5012847;28;20084;-61
2022/10/26 01:46:21;;;;;;;19.77;2.60;;;;;;;;;;5030673;28;20114;-61
2022/10/26 01:48:49;;;;;;;18.08;3.05;;;;;;;;;;5031894;28;20021;-61
2022/10/26 01:51:15;;;;;;;16.20;3.10;;;;;;;;;;5017605;28;20045;-61
2022/10/26 01:53:44;;;;;;;21.45;2.95;;;;;;;;;;5005882;28;20149;-61
2022/10/26 01:56:31;;;;;;;15.35;2.42;;;;;;;;;;5008527;28;20026;-61
2022/10/26 01:59:09;;;;;;;15.75;2.65;;;;;;;;;;5012640;28;20398;-61
2022/10/26 02:01:47;;;;;;;17.48;2.90;;;;;;;;;;5012869;28;20421;-61
2022/10/26 02:04:22;;;;;;;14.57;2.38;;;;;;;;;;5012736;28;20470;-61
2022/10/26 02:06:48;;;;;;;19.48;3.67;;;;;;;;;;5013546;28;20025;-61
2022/10/26 02:09:38;;;;;;;17.58;2.50;;;;;;;;;;5021560;28;20455;-61
2022/10/26 02:12:09;;;;;;;10.60;2.00;;;;;;;;;;5033797;28;20105;-61
2022/10/26 02:14:49;;;;;;;11.40;2.13;;;;;;;;;;5031768;28;20045;-61
2022/10/26 02:17:28;;;;;;;11.90;2.90;;;;;;;;;;5009464;28;20398;-61
2022/10/26 02:19:58;;;;;;;14.88;2.30;;;;;;;;;;5029592;28;20025;-61
2022/10/26 02:22:27;;;;;;;15.85;2.30;;;;;;;;;;5027841;28;20042;-61
2022/10/26 02:24:54;;;;;;;16.85;2.80;;;;;;;;;;5024761;28;20026;-61
2022/10/26 02:27:22;;;;;;;12.23;2.03;;;;;;;;;;5023154;28;20112;-61
2022/10/26 02:29:49;;;;;;;16.75;2.63;;;;;;;;;;5030203;28;20030;-61
2022/10/26 02:32:17;;;;;;;15.63;2.63;;;;;;;;;;5031532;28;20112;-61
2022/10/26 02:34:44;;;;;;;15.75;2.78;;;;;;;;;;5029857;28;20048;-61
2022/10/26 02:37:12;;;;;;;26.02;2.50;;;;;;;;;;5031508;28;20029;-61
2022/10/26 02:39:40;;;;;;;15.48;2.47;;;;;;;;;;5025109;28;20057;-61
2022/10/26 02:42:06;;;;;;;13.25;2.55;;;;;;;;;;5013345;28;20030;-61
2022/10/26 02:44:37;;;;;;;13.45;3.13;;;;;;;;;;5012375;28;20053;-61
2022/10/26 02:47:03;;;;;;;12.57;2.63;;;;;;;;;;5012273;28;20448;-61
2022/10/26 02:49:29;;;;;;;14.93;2.55;;;;;;;;;;5013850;28;20037;-61
2022/10/26 02:52:08;;;;;;;15.73;2.65;;;;;;;;;;5026320;28;20029;-61
2022/10/26 02:54:39;;;;;;;18.38;2.97;;;;;;;;;;5010813;28;20117;-61
2022/10/26 02:57:14;;;;;;;16.40;2.65;;;;;;;;;;5029026;28;20029;-61
2022/10/26 02:59:42;;;;;;;18.15;3.40;;;;;;;;;;5016443;28;20030;-61
2022/10/26 03:02:08;;;;;;;15.68;2.47;;;;;;;;;;5016155;28;20060;-61
2022/10/26 03:04:35;;;;;;;21.10;2.45;;;;;;;;;;5016511;28;20018;-61
2022/10/26 03:07:01;;;;;;;18.83;3.08;;;;;;;;;;5016085;28;20025;-61
2022/10/26 03:09:27;;;;;;;17.60;2.63;;;;;;;;;;5016052;28;20379;-61
2022/10/26 03:11:54;;;;;;;14.02;2.45;;;;;;;;;;5015344;28;20112;-61
2022/10/26 03:14:20;;;;;;;12.88;2.03;;;;;;;;;;5016298;28;20053;-61
2022/10/26 03:16:46;;;;;;;16.20;2.20;;;;;;;;;;5011776;28;20057;-61
2022/10/26 03:19:12;;;;;;;11.90;2.67;;;;;;;;;;5013165;28;20032;-61
2022/10/26 03:21:38;;;;;;;19.10;2.15;;;;;;;;;;5020660;28;20045;-61
2022/10/26 03:24:04;;;;;;;12.88;2.30;;;;;;;;;;5016112;28;20029;-61
2022/10/26 03:26:30;;;;;;;25.73;3.08;;;;;;;;;;5023410;28;20143;-61
2022/10/26 03:28:56;;;;;;;18.00;3.05;;;;;;;;;;5017275;28;20062;-61
2022/10/26 03:31:23;;;;;;;11.70;2.45;;;;;;;;;;5016849;28;20033;-61
2022/10/26 03:33:49;;;;;;;12.52;2.10;;;;;;;;;;5016643;28;20026;-61
2022/10/26 03:36:15;;;;;;;15.32;2.10;;;;;;;;;;5016027;28;20030;-61
2022/10/26 03:38:41;;;;;;;12.38;2.55;;;;;;;;;;5016773;28;20021;-61
2022/10/26 03:41:07;;;;;;;13.38;3.53;;;;;;;;;;5016945;28;20120;-61
2022/10/26 03:43:33;;;;;;;15.07;2.22;;;;;;;;;;5018615;28;20100;-61
2022/10/26 03:45:59;;;;;;;16.25;2.45;;;;;;;;;;5012086;28;20025;-61
2022/10/26 03:48:25;;;;;;;12.63;2.60;;;;;;;;;;5010543;28;20030;-61
2022/10/26 03:50:51;;;;;;;14.77;2.40;;;;;;;;;;5021462;28;20053;-61
2022/10/26 03:53:17;;;;;;;15.95;2.45;;;;;;;;;;5016316;28;20046;-61
2022/10/26 03:55:44;;;;;;;16.13;2.28;;;;;;;;;;5017051;28;20021;-61
2022/10/26 03:58:10;;;;;;;13.85;2.55;;;;;;;;;;5012297;28;20374;-61
2022/10/26 04:00:36;;;;;;;9.13;1.98;;;;;;;;;;5017384;28;20029;-61
2022/10/26 04:03:02;;;;;;;11.63;1.83;;;;;;;;;;5014329;28;20408;-61
2022/10/26 04:05:29;;;;;;;21.40;2.72;;;;;;;;;;5014573;28;20033;-61
2022/10/26 04:07:55;;;;;;;12.90;2.20;;;;;;;;;;5018703;28;20040;-61
2022/10/26 04:10:21;;;;;;;14.50;3.22;;;;;;;;;;5029627;28;20394;-61
2022/10/26 04:12:48;;;;;;;13.68;2.45;;;;;;;;;;5030180;28;20026;-61
2022/10/26 04:15:14;;;;;;;9.32;1.98;;;;;;;;;;5022375;28;20027;-61
2022/10/26 04:17:40;;;;;;;15.95;2.72;;;;;;;;;;5024197;28;20382;-61
2022/10/26 04:20:07;;;;;;;12.27;2.22;;;;;;;;;;5027686;28;20037;-61
2022/10/26 04:22:33;;;;;;;11.90;2.03;;;;;;;;;;5022356;28;20044;-61
2022/10/26 04:24:59;;;;;;;16.55;3.55;;;;;;;;;;5027440;28;20373;-61
2022/10/26 04:27:25;;;;;;;8.95;2.13;;;;;;;;;;5022855;28;20033;-61
2022/10/26 04:29:51;;;;;;;13.93;1.88;;;;;;;;;;5028771;28;20038;-61
2022/10/26 04:32:17;;;;;;;9.93;2.13;;;;;;;;;;5019104;28;20022;-61
2022/10/26 04:34:43;;;;;;;19.98;2.40;;;;;;;;;;5013315;28;20029;-61
2022/10/26 04:37:09;;;;;;;15.55;2.67;;;;;;;;;;5017173;28;20026;-61
2022/10/26 04:39:35;;;;;;;11.35;2.10;;;;;;;;;;5020103;28;20028;-61
2022/10/26 04:42:01;;;;;;;18.25;3.38;;;;;;;;;;5009907;28;20034;-61
2022/10/26 04:44:27;;;;;;;13.13;2.40;;;;;;;;;;5016959;28;20022;-62
2022/10/26 04:46:54;;;;;;;15.82;3.33;;;;;;;;;;5014354;28;20045;-62
2022/10/26 04:49:20;;;;;;;12.55;3.85;;;;;;;;;;5014685;28;20508;-61
2022/10/26 04:51:46;;;;;;;12.80;2.35;;;;;;;;;;5011552;28;20029;-61
2022/10/26 04:54:12;;;;;;;8.20;2.65;;;;;;;;;;5017666;28;20097;-61
2022/10/26 04:56:38;;;;;;;17.40;2.35;;;;;;;;;;5014444;28;20132;-61
2022/10/26 04:59:04;;;;;;;18.55;3.17;;;;;;;;;;5009221;28;20123;-61
2022/10/26 05:01:31;;;;;;;20.48;3.83;;;;;;;;;;5012643;28;20406;-61
2022/10/26 05:03:57;;;;;;;12.23;2.28;;;;;;;;;;5015397;28;20029;-61
2022/10/26 05:06:23;;;;;;;16.75;2.40;;;;;;;;;;5012715;28;20037;-61
2022/10/26 05:08:49;;;;;;;13.60;3.05;;;;;;;;;;5015083;28;20046;-61
2022/10/26 05:11:16;;;;;;;14.88;2.67;;;;;;;;;;5012695;28;20489;-61
2022/10/26 05:13:42;;;;;;;14.57;2.50;;;;;;;;;;5013758;28;20030;-61
2022/10/26 05:16:08;;;;;;;19.08;3.33;;;;;;;;;;5014569;28;20049;-61
2022/10/26 05:18:34;;;;;;;29.80;3.40;;;;;;;;;;5013845;28;20029;-61
2022/10/26 05:21:00;;;;;;;17.60;3.08;;;;;;;;;;5014670;28;20394;-61
2022/10/26 05:23:26;;;;;;;17.13;3.38;;;;;;;;;;5015380;28;20025;-61
2022/10/26 05:25:54;;;;;;;17.52;2.80;;;;;;;;;;5014173;28;20524;-61
2022/10/26 05:28:20;;;;;;;15.20;2.35;;;;;;;;;;5014149;28;20102;-61
2022/10/26 05:30:47;;;;;;;24.08;3.88;;;;;;;;;;5014280;28;20040;-61
2022/10/26 05:33:13;;;;;;;16.05;2.65;;;;;;;;;;5014646;28;20108;-61
2022/10/26 05:35:40;;;;;;;11.35;2.90;;;;;;;;;;5014359;28;20466;-61
2022/10/26 05:38:10;;;;;;;17.08;3.22;;;;;;;;;;5012546;28;20022;-61
2022/10/26 05:40:36;;;;;;;24.83;3.50;;;;;;;;;;5011662;28;20072;-61
2022/10/26 05:43:02;;;;;;;13.77;2.78;;;;;;;;;;4998036;28;20026;-61
2022/10/26 05:45:29;;;;;;;20.35;2.75;;;;;;;;;;4997204;28;20239;-61
2022/10/26 05:47:55;;;;;;;24.17;3.45;;;;;;;;;;5003937;28;20042;-61
2022/10/26 05:50:21;;;;;;;15.43;3.17;;;;;;;;;;5004317;28;20038;-61
2022/10/26 05:52:49;;;;;;;12.57;2.22;;;;;;;;;;5000044;28;20101;-63
2022/10/26 05:55:17;;;;;;;15.18;2.45;;;;;;;;;;5003144;28;20084;-62
2022/10/26 05:57:43;;;;;;;12.32;2.30;;;;;;;;;;4998786;28;20015;-62
2022/10/26 06:00:11;;;;;;;19.30;2.40;;;;;;;;;;4997891;28;20045;-62
2022/10/26 06:02:58;;;;;;;16.08;2.78;;;;;;;;;;5000908;28;20037;-62
2022/10/26 06:05:26;;;;;;;15.10;2.50;;;;;;;;;;5008503;28;20061;-62
2022/10/26 06:07:52;;;;;;;13.32;3.17;;;;;;;;;;5011483;28;20144;-62
2022/10/26 06:10:19;;;;;;;19.80;3.78;;;;;;;;;;5011121;28;20084;-61
2022/10/26 06:12:45;;;;;;;16.35;2.88;;;;;;;;;;5011075;28;20037;-61
2022/10/26 06:15:17;;;;;;;15.93;2.67;;;;;;;;;;5009153;28;20064;-63
2022/10/26 06:17:56;;;;;;;14.55;3.03;;;;;;;;;;5004999;28;20126;-62
2022/10/26 06:20:31;;;;;;;19.38;3.20;;;;;;;;;;5008699;28;20034;-62
2022/10/26 06:23:06;;;;;;;15.35;2.85;;;;;;;;;;5009957;28;20030;-61
2022/10/26 06:25:44;;;;;;;19.73;3.25;;;;;;;;;;5008032;28;20041;-61
2022/10/26 06:28:29;;;;;;;15.60;2.58;;;;;;;;;;5011017;28;20048;-61
2022/10/26 06:30:55;;;;;;;17.88;3.28;;;;;;;;;;5013560;28;20405;-61
2022/10/26 06:33:21;;;;;;;13.13;3.13;;;;;;;;;;5012762;28;20030;-61
2022/10/26 06:35:58;;;;;;;18.85;3.13;;;;;;;;;;5012638;28;20060;-61
2022/10/26 06:38:27;;;;;;;17.40;3.85;;;;;;;;;;5013456;28;20030;-61
2022/10/26 06:40:55;;;;;;;14.85;2.30;;;;;;;;;;5010903;28;20433;-61
2022/10/26 06:43:30;;;;;;;21.38;3.50;;;;;;;;;;5014177;28;20092;-62
2022/10/26 06:46:04;;;;;;;24.35;3.00;;;;;;;;;;5022417;28;20104;-62
2022/10/26 06:48:33;;;;;;;14.77;3.08;;;;;;;;;;5018415;28;20029;-62
2022/10/26 06:50:59;;;;;;;22.10;3.15;;;;;;;;;;5018926;28;20112;-62
2022/10/26 06:53:30;;;;;;;16.42;2.72;;;;;;;;;;5014353;28;20028;-62
2022/10/26 06:55:58;;;;;;;11.88;2.63;;;;;;;;;;5015546;28;20116;-62
2022/10/26 06:58:26;;;;;;;20.73;4.63;;;;;;;;;;5012259;28;20049;-62
2022/10/26 07:00:53;;;;;;;12.77;2.63;;;;;;;;;;5014202;28;20080;-62
2022/10/26 07:03:19;;;;;;;13.65;2.67;;;;;;;;;;5012612;28;20053;-62
2022/10/26 07:05:46;;;;;;;11.27;2.63;;;;;;;;;;5015234;28;20552;-62
2022/10/26 07:08:12;;;;;;;25.27;3.35;;;;;;;;;;5013199;28;20041;-62
2022/10/26 07:10:38;;;;;;;20.27;2.97;;;;;;;;;;5012332;28;20061;-62
2022/10/26 07:13:05;;;;;;;13.98;3.00;;;;;;;;;;5014214;28;20030;-62
2022/10/26 07:15:31;;;;;;;14.13;2.45;;;;;;;;;;5013650;28;20030;-62
2022/10/26 07:17:58;;;;;;;9.65;2.50;;;;;;;;;;5015729;28;20101;-63
2022/10/26 07:20:24;;;;;;;9.95;2.28;;;;;;;;;;5014845;28;20112;-63
2022/10/26 07:22:53;;;;;;;13.48;3.00;;;;;;;;;;5012011;28;20092;-63
2022/10/26 07:25:19;;;;;;;13.73;1.95;;;;;;;;;;5016674;28;20061;-62
2022/10/26 07:27:46;;;;;;;18.70;2.25;;;;;;;;;;5013852;28;20025;-64
2022/10/26 07:30:12;;;;;;;11.02;2.60;;;;;;;;;;5012849;28;20030;-65
2022/10/26 07:32:38;;;;;;;12.02;2.53;;;;;;;;;;5014073;28;20026;-65
2022/10/26 07:35:04;;;;;;;11.10;2.20;;;;;;;;;;5012716;28;20021;-65
2022/10/26 07:37:30;;;;;;;12.38;2.00;;;;;;;;;;5011878;28;20026;-65
2022/10/26 07:39:57;;;;;;;13.27;2.78;;;;;;;;;;5010155;28;20030;-65
2022/10/26 07:42:23;;;;;;;16.10;3.72;;;;;;;;;;5009986;28;20497;-64
2022/10/26 07:44:49;;;;;;;10.45;2.03;;;;;;;;;;5012510;28;20045;-64
2022/10/26 07:47:15;;;;;;;9.98;2.58;;;;;;;;;;5010794;28;20037;-64
2022/10/26 07:49:41;;;;;;;11.27;2.00;;;;;;;;;;5011839;28;20026;-65
2022/10/26 07:52:07;;;;;;;9.05;2.08;;;;;;;;;;5010971;28;20088;-65
2022/10/26 07:54:33;;;;;;;14.80;2.00;;;;;;;;;;5012005;28;20026;-65
2022/10/26 07:56:59;;;;;;;8.55;1.88;;;;;;;;;;5012079;28;20418;-65
2022/10/26 07:59:26;;;;;;;10.98;3.50;;;;;;;;;;5014231;28;20494;-65
2022/10/26 08:01:52;;;;;;;12.60;2.20;;;;;;;;;;5010585;28;20037;-65
2022/10/26 08:04:18;;;;;;;10.68;1.80;;;;;;;;;;5011141;28;20112;-65
2022/10/26 08:06:45;;;;;;;9.77;3.80;;;;;;;;;;5011265;28;20034;-65
2022/10/26 08:09:12;;;;;;;18.85;4.03;;;;;;;;;;5010223;28;20046;-65
2022/10/26 08:11:38;;;;;;;8.02;1.77;;;;;;;;;;5013667;28;20021;-65
2022/10/26 08:14:04;;;;;;;8.23;1.48;;;;;;;;;;5014665;28;20374;-65
2022/10/26 08:16:30;;;;;;;20.88;4.13;;;;;;;;;;5012900;28;20409;-65
2022/10/26 08:18:56;;;;;;;9.40;2.17;;;;;;;;;;5011746;28;20029;-65
2022/10/26 08:21:23;;;;;;;11.73;2.42;;;;;;;;;;5012962;28;20478;-65
2022/10/26 08:23:49;;;;;;;10.02;2.22;;;;;;;;;;5011263;28;20028;-65
2022/10/26 08:26:16;;;;;;;9.30;1.85;;;;;;;;;;5011270;28;20077;-65
2022/10/26 08:28:42;;;;;;;6.93;1.52;;;;;;;;;;5010326;28;20517;-65
2022/10/26 08:31:08;;;;;;;13.73;1.80;;;;;;;;;;5012235;28;20049;-65
2022/10/26 08:33:34;;;;;;;9.95;2.55;;;;;;;;;;5012280;28;20071;-65
2022/10/26 08:36:01;;;;;;;9.38;2.53;;;;;;;;;;5012278;28;20034;-65
2022/10/26 08:38:28;;;;;;;15.50;3.22;;;;;;;;;;5010512;28;20116;-65
2022/10/26 08:40:56;;;;;;;12.48;2.28;;;;;;;;;;5013372;28;20041;-65
2022/10/26 08:43:22;;;;;;;18.75;2.35;;;;;;;;;;5010102;28;20500;-65
2022/10/26 08:46:00;;;;;;;15.68;2.17;;;;;;;;;;5012027;28;20555;-65
2022/10/26 08:48:34;;;;;;;18.05;2.42;;;;;;;;;;5009009;28;20437;-65
2022/10/26 08:51:06;;;;;;;15.48;3.35;;;;;;;;;;5010971;28;20030;-65
2022/10/26 08:53:32;;;;;;;;;;;;;;;;;;5011065;28;20026;-65
2022/10/26 08:56:05;;;;;;;9.82;2.40;;;;;;;;;;5013987;28;19906;-65
2022/10/26 08:58:36;;;;;;;9.35;1.90;;;;;;;;;;5009539;28;20033;-65
2022/10/26 09:01:04;;;;;;;15.35;2.70;;;;;;;;;;5011562;28;20033;-63
2022/10/26 09:03:30;;;;;;;19.15;2.80;;;;;;;;;;5011172;28;20041;-63
2022/10/26 09:06:08;;;;;;;17.02;2.53;;;;;;;;;;5009284;28;20026;-62
2022/10/26 09:09:04;;;;;;;11.90;2.47;;;;;;;;;;5004159;28;20037;-62
2022/10/26 09:11:30;;;;;;;12.50;2.40;;;;;;;;;;5013117;28;20042;-62
2022/10/26 09:14:05;;;;;;;21.20;2.78;;;;;;;;;;5008525;28;20030;-62
2022/10/26 09:16:34;;;;;;;25.20;3.47;;;;;;;;;;5008507;28;20488;-62
2022/10/26 09:19:07;;;;;;;17.92;3.53;;;;;;;;;;5007494;28;22172;-62
2022/10/26 09:21:40;;;;;;;18.00;3.13;;;;;;;;;;5010468;28;20045;-62
2022/10/26 09:24:06;;;;;;;17.58;3.45;;;;;;;;;;5007220;28;20034;-62
2022/10/26 09:26:50;;;;;;;21.38;3.08;;;;;;;;;;5009661;28;20108;-62
2022/10/26 09:29:17;;;;;;;22.83;3.30;;;;;;;;;;5009172;28;20040;-62
2022/10/26 09:31:45;;;;;;;26.23;3.03;;;;;;;;;;5011427;28;20030;-62
2022/10/26 09:34:23;;;;;;;15.85;2.78;;;;;;;;;;5009132;28;20044;-62
2022/10/26 09:36:54;;;;;;;19.17;3.95;;;;;;;;;;5012804;28;20525;-62
2022/10/26 09:39:30;;;;;;;28.00;4.03;;;;;;;;;;5013121;28;20033;-62
2022/10/26 09:41:59;;;;;;;22.67;3.60;;;;;;;;;;5010315;28;20478;-62
2022/10/26 09:44:30;;;;;;;19.73;3.88;;;;;;;;;;5009442;28;20033;-62
2022/10/26 09:47:06;;;;;;;18.15;3.45;;;;;;;;;;5008692;28;20029;-63
2022/10/26 09:49:50;;;;;;;18.63;2.80;;;;;;;;;;5010700;28;20433;-63
2022/10/26 09:52:16;;;;;;;15.65;3.50;;;;;;;;;;5014933;28;20068;-62
2022/10/26 09:54:42;;;;;;;17.60;3.60;;;;;;;;;;5015569;28;20018;-62
2022/10/26 09:57:09;;;;;;;16.88;3.45;;;;;;;;;;5008984;28;20057;-62
2022/10/26 09:59:38;;;;;;;16.83;3.70;;;;;;;;;;5011582;28;20050;-62
2022/10/26 10:02:23;;;;;;;20.38;3.20;;;;;;;;;;5006008;28;20026;-62
2022/10/26 10:04:49;;;;;;;17.50;3.17;;;;;;;;;;5003508;28;20030;-62
2022/10/26 10:07:17;;;;;;;21.05;3.88;;;;;;;;;;5010269;28;20117;-62
2022/10/26 10:09:43;;;;;;;15.85;3.17;;;;;;;;;;5010847;28;20108;-62
2022/10/26 10:12:20;;;;;;;15.40;3.75;;;;;;;;;;5010143;28;20438;-62
2022/10/26 10:14:56;;;;;;;22.33;2.97;;;;;;;;;;5010330;28;20040;-62
2022/10/26 10:17:23;;;;;;;22.13;3.28;;;;;;;;;;5007323;28;20109;-62
2022/10/26 10:19:50;;;;;;;19.63;3.20;;;;;;;;;;5009506;28;20042;-62
2022/10/26 10:22:17;;;;;;;20.02;3.67;;;;;;;;;;5009798;28;20410;-62
2022/10/26 10:24:53;;;;;;;22.60;3.35;;;;;;;;;;5010066;28;20062;-62
2022/10/26 10:27:19;;;;;;;17.52;3.33;;;;;;;;;;5011576;28;20041;-62
2022/10/26 10:29:48;;;;;;;21.70;3.58;;;;;;;;;;5009650;28;20026;-62
2022/10/26 10:32:22;;;;;;;22.77;4.22;;;;;;;;;;5011906;28;22273;-62
2022/10/26 10:34:49;;;;;;;18.55;3.75;;;;;;;;;;5007736;28;20482;-62
2022/10/26 10:37:37;;;;;;;17.15;4.32;;;;;;;;;;5009930;28;20522;-62
2022/10/26 10:40:17;;;;;;;18.98;3.22;;;;;;;;;;5012710;28;20077;-62
2022/10/26 10:42:44;;;;;;;23.35;3.70;;;;;;;;;;5010829;28;20490;-62
2022/10/26 10:45:19;;;;;;;23.67;5.20;;;;;;;;;;5008637;28;20101;-62
2022/10/26 10:47:58;;;;;;;22.15;3.63;;;;;;;;;;5009577;28;20037;-62
2022/10/26 10:50:24;;;;;;;23.95;3.95;;;;;;;;;;5008471;28;20406;-62
2022/10/26 10:52:51;;;;;;;23.38;3.63;;;;;;;;;;5006343;28;20066;-62
2022/10/26 10:55:21;;;;;;;22.98;3.33;;;;;;;;;;5004379;28;20034;-62
2022/10/26 10:58:06;;;;;;;20.88;3.67;;;;;;;;;;5007793;28;20022;-62
2022/10/26 11:00:35;;;;;;;22.23;4.13;;;;;;;;;;5005356;28;20091;-62
2022/10/26 11:03:01;;;;;;;18.15;3.70;;;;;;;;;;5002960;28;20022;-62
2022/10/26 11:05:46;;;;;;;21.23;4.53;;;;;;;;;;5011095;28;20033;-62
2022/10/26 11:08:20;;;;;;;29.67;4.03;;;;;;;;;;5007857;28;20112;-62
2022/10/26 11:11:05;;;;;;;21.10;3.50;;;;;;;;;;5011375;28;20483;-62
2022/10/26 11:13:34;;;;;;;19.33;3.03;;;;;;;;;;5012505;28;20026;-62
2022/10/26 11:16:02;;;;;;;18.15;3.63;;;;;;;;;;5012500;28;20019;-62
2022/10/26 11:18:32;;;;;;;21.10;4.28;;;;;;;;;;5006376;28;20021;-62
2022/10/26 11:21:02;;;;;;;19.42;3.00;;;;;;;;;;5015574;28;20038;-62
2022/10/26 11:23:34;;;;;;;27.08;4.68;;;;;;;;;;5014876;28;20034;-62
2022/10/26 11:26:23;;;;;;;19.15;4.32;;;;;;;;;;5016564;28;20359;-62
2022/10/26 11:28:51;;;;;;;18.00;3.53;;;;;;;;;;5013482;28;20038;-62
2022/10/26 11:31:21;;;;;;;18.50;3.55;;;;;;;;;;5014603;28;20109;-62
2022/10/26 11:33:57;;;;;;;26.10;4.15;;;;;;;;;;5013013;28;20022;-62
2022/10/26 11:36:24;;;;;;;15.40;4.35;;;;;;;;;;5012193;28;20101;-62
2022/10/26 11:39:22;;;;;;;16.55;3.08;;;;;;;;;;5006300;28;20022;-62
2022/10/26 11:41:50;;;;;;;15.40;3.38;;;;;;;;;;5016643;28;21786;-62
2022/10/26 11:44:16;;;;;;;23.13;3.85;;;;;;;;;;5008466;28;20025;-62
2022/10/26 11:46:44;;;;;;;11.85;3.05;;;;;;;;;;5012296;28;20080;-62
2022/10/26 11:49:13;;;;;;;15.90;3.25;;;;;;;;;;5014380;28;20065;-62
2022/10/26 11:51:39;;;;;;;20.38;3.45;;;;;;;;;;5012170;28;20129;-62
2022/10/26 11:54:09;;;;;;;27.75;4.28;;;;;;;;;;5016481;28;20061;-62
2022/10/26 11:56:38;;;;;;;26.58;4.10;;;;;;;;;;5013343;28;21396;-62
2022/10/26 11:59:05;;;;;;;17.95;3.65;;;;;;;;;;5009500;28;20022;-62
2022/10/26 12:01:33;;;;;;;17.13;3.90;;;;;;;;;;5008807;28;20453;-62
2022/10/26 12:04:00;;;;;;;18.10;3.22;;;;;;;;;;5001507;28;20034;-62
2022/10/26 12:06:29;;;;;;;18.48;3.70;;;;;;;;;;5008678;28;20040;-62
2022/10/26 12:09:07;;;;;;;17.00;3.40;;;;;;;;;;5009915;28;20120;-62
2022/10/26 12:11:49;;;;;;;19.23;4.00;;;;;;;;;;5009815;28;20036;-62
2022/10/26 12:14:19;;;;;;;16.70;3.95;;;;;;;;;;5012850;28;20034;-62
2022/10/26 12:16:56;;;;;;;15.63;3.35;;;;;;;;;;5008005;28;20487;-62
2022/10/26 12:19:38;;;;;;;24.23;4.20;;;;;;;;;;5007004;28;20049;-62
2022/10/26 12:22:08;;;;;;;16.67;3.35;;;;;;;;;;5009520;28;20033;-62
2022/10/26 12:24:35;;;;;;;15.15;3.03;;;;;;;;;;5006827;28;20037;-62
2022/10/26 12:27:03;;;;;;;15.45;3.33;;;;;;;;;;5012284;28;20017;-62
2022/10/26 12:29:39;;;;;;;18.60;2.90;;;;;;;;;;5010949;28;20026;-62
2022/10/26 12:32:25;;;;;;;24.45;4.47;;;;;;;;;;5010910;28;20018;-62
2022/10/26 12:34:53;;;;;;;32.88;4.35;;;;;;;;;;5008249;28;20449;-62
2022/10/26 12:37:29;;;;;;;23.27;3.67;;;;;;;;;;5009040;28;20036;-62
2022/10/26 12:40:16;;;;;;;20.80;3.28;;;;;;;;;;5008726;28;20053;-62
2022/10/26 12:42:42;;;;;;;18.83;3.72;;;;;;;;;;5008225;28;20041;-62
2022/10/26 12:45:16;;;;;;;21.40;3.42;;;;;;;;;;5006670;28;20036;-62
2022/10/26 12:47:42;;;;;;;16.40;3.13;;;;;;;;;;5007894;28;20034;-62
2022/10/26 12:50:08;;;;;;;12.63;3.05;;;;;;;;;;5005524;28;20061;-62
2022/10/26 12:52:54;;;;;;;18.52;2.78;;;;;;;;;;5008440;28;20030;-62
2022/10/26 12:55:35;;;;;;;15.35;3.72;;;;;;;;;;5008605;28;20117;-62
2022/10/26 12:58:20;;;;;;;14.68;2.70;;;;;;;;;;5008619;28;20038;-62
2022/10/26 13:00:54;;;;;;;15.45;3.10;;;;;;;;;;5009150;28;20044;-62
2022/10/26 13:03:26;;;;;;;27.35;3.92;;;;;;;;;;5004131;28;20211;-62
2022/10/26 13:06:11;;;;;;;19.45;4.45;;;;;;;;;;5000658;28;20117;-62
2022/10/26 13:08:40;;;;;;;19.83;4.10;;;;;;;;;;5010872;28;20061;-62
2022/10/26 13:11:40;;;;;;;21.85;3.88;;;;;;;;;;5012035;28;20030;-62
2022/10/26 13:14:18;;;;;;;19.23;2.88;;;;;;;;;;5048938;28;20029;-62
2022/10/26 13:16:45;;;;;;;17.77;4.00;;;;;;;;;;5042257;28;20120;-62
2022/10/26 13:19:23;;;;;;;25.80;3.33;;;;;;;;;;5047748;28;20525;-62
2022/10/26 13:21:49;;;;;;;21.90;3.65;;;;;;;;;;5043553;28;20032;-62
2022/10/26 13:24:15;;;;;;;22.23;3.85;;;;;;;;;;5042763;28;20047;-62
2022/10/26 13:27:00;;;;;;;22.02;4.07;;;;;;;;;;5041475;28;20493;-62
2022/10/26 13:29:29;;;;;;;29.33;4.60;;;;;;;;;;5047245;28;20536;-62
2022/10/26 13:31:56;;;;;;;27.75;4.75;;;;;;;;;;5043480;28;20091;-62
2022/10/26 13:34:23;;;;;;;24.60;3.88;;;;;;;;;;5048641;28;20053;-62
2022/10/26 13:36:52;;;;;;;16.48;2.85;;;;;;;;;;5040525;28;20041;-62
2022/10/26 13:39:23;;;;;;;20.08;3.95;;;;;;;;;;5038944;28;20025;-62
2022/10/26 13:41:51;;;;;;;19.38;2.70;;;;;;;;;;5039795;28;20034;-62
2022/10/26 13:44:24;;;;;;;21.13;3.80;;;;;;;;;;5045031;28;20434;-62
2022/10/26 13:46:56;;;;;;;30.83;4.28;;;;;;;;;;5042428;28;20029;-62
2022/10/26 13:49:27;;;;;;;18.83;4.25;;;;;;;;;;5033048;28;20405;-62
2022/10/26 13:51:53;;;;;;;19.65;3.00;;;;;;;;;;5006701;28;20040;-62
2022/10/26 13:54:35;;;;;;;13.00;3.45;;;;;;;;;;5008245;28;20161;-62
2022/10/26 13:57:03;;;;;;;17.80;3.22;;;;;;;;;;5009215;28;20013;-62
2022/10/26 13:59:31;;;;;;;27.23;3.95;;;;;;;;;;5007196;28;20445;-62
2022/10/26 14:02:26;;;;;;;22.13;4.13;;;;;;;;;;5012334;28;20469;-62
2022/10/26 14:04:54;;;;;;;16.13;3.30;;;;;;;;;;4998009;28;20117;-62
2022/10/26 14:07:23;;;;;;;22.02;3.28;;;;;;;;;;5001984;28;20026;-62
2022/10/26 14:09:53;;;;;;;17.10;3.15;;;;;;;;;;5006154;28;20054;-63
2022/10/26 14:12:19;;;;;;;20.70;3.63;;;;;;;;;;5008921;28;20037;-62
2022/10/26 14:14:46;;;;;;;13.75;3.20;;;;;;;;;;5010728;28;20101;-62
2022/10/26 14:17:18;;;;;;;20.27;3.30;;;;;;;;;;5011910;28;20057;-62
2022/10/26 14:19:44;;;;;;;14.18;2.97;;;;;;;;;;5012059;28;20026;-62
2022/10/26 14:22:19;;;;;;;33.40;4.53;;;;;;;;;;5010619;28;20498;-62
2022/10/26 14:24:50;;;;;;;15.23;3.13;;;;;;;;;;5008715;28;20100;-62
2022/10/26 14:27:17;;;;;;;21.95;3.15;;;;;;;;;;5011402;28;20034;-62
2022/10/26 14:29:44;;;;;;;19.35;3.45;;;;;;;;;;5009462;28;20026;-63
2022/10/26 14:32:25;;;;;;;11.60;3.00;;;;;;;;;;5014691;28;20045;-62
2022/10/26 14:34:51;;;;;;;18.48;3.78;;;;;;;;;;5011679;28;20048;-62
2022/10/26 14:37:29;;;;;;;14.05;2.95;;;;;;;;;;5011786;28;20024;-62
2022/10/26 14:39:55;;;;;;;13.40;3.05;;;;;;;;;;5010725;28;20033;-62
2022/10/26 14:42:27;;;;;;;15.50;3.25;;;;;;;;;;5012469;28;20386;-62
2022/10/26 14:44:53;;;;;;;19.23;4.05;;;;;;;;;;5010094;28;20123;-62